Météo Nord-Pas-de-Calais   La météo au plus près de chez vous

Station météorologique

Observations météo à Brive-Souillac (19147)

19147001 295 m Dernier relevé à 06:36
14.2°C
Humidité 85 % Vent 0 km/h 1021.9 hPa

Journée consultée

Mercredi 2 Septembre 2026

Synthèse de la journée

Périodes de référence en UTC

Température maximale

26.9°C

à 17:00

06h 06h

Température minimale

14.2°C

à 05:18

18h 18h

Rafale maximale

9 km/h

à 03:12

00h 00h

Précipitations

0.2 mm

Cumul quotidien

06h 06h

Graphiques de la journée

Heure locale Réduire

Données détaillées

Relevés météo

Pas de 6 minutes Afficher les relevés infra-horaires
Relevés météo détaillés à Brive-Souillac pour le Mercredi 2 Septembre 2026
Heure Température °C Point de rosée °C Humidité % Vent moyen (raf.), km/h Précipitations mm Visibilité m Pression hPa Nébulosité Octas
06:36 14.2 °C 11.9 °C 86 % 2 km/h (3 km/h) 0 mm0 mm 60000 m 1021.9 hPa
06:30 14.2 °C 11.9 °C 86 % 2 km/h (4 km/h) 0 mm0 mm 60000 m 1021.9 hPa
06:24 14.2 °C 11.9 °C 86 % 0 km/h (2 km/h) 0 mm0 mm 60000 m 1021.9 hPa
06:18 14.3 °C 11.8 °C 85 % 0 km/h (2 km/h) 0 mm0 mm 60000 m 1021.8 hPa
06:12 14.3 °C 11.8 °C 85 % 0 km/h (3 km/h) 0 mm0 mm 60000 m 1021.8 hPa
06:06 14.3 °C 11.8 °C 85 % 0 km/h (3 km/h) 0 mm0 mm 60000 m 1021.8 hPa
06:00 14.3 °C 11.8 °C 85 % 0 km/h (2 km/h) 0 mm0 mm 60000 m 1021.8 hPa 7 Octas
05:54 14.2 °C 11.7 °C 85 % 0 km/h (3 km/h) 0 mm0 mm 60000 m 1021.8 hPa
05:48 14.2 °C 11.7 °C 85 % 2 km/h (3 km/h) 0 mm0 mm 60000 m 1021.8 hPa
05:42 14.2 °C 11.7 °C 85 % 2 km/h (3 km/h) 0 mm0 mm 60000 m 1021.9 hPa
05:36 14.2 °C 11.7 °C 85 % 0 km/h (3 km/h) 0 mm0 mm 60000 m 1021.9 hPa
05:30 14.2 °C 11.7 °C 85 % 0 km/h (3 km/h) 0 mm0 mm 60000 m 1021.9 hPa
05:24 14.2 °C 11.7 °C 85 % 0 km/h (3 km/h) 0 mm0 mm 60000 m 1021.9 hPa
05:18 14.2 °C 11.5 °C 84 % 0 km/h (3 km/h) 0 mm0 mm 60000 m 1022 hPa
05:12 14.3 °C 11.6 °C 84 % 2 km/h (3 km/h) 0 mm0 mm 60000 m 1021.9 hPa
05:06 14.4 °C 11.7 °C 84 % 3 km/h (3 km/h) 0 mm0 mm 60000 m 1021.9 hPa
05:00 14.4 °C 11.7 °C 84 % 2 km/h (3 km/h) 0 mm0 mm 60000 m 1022 hPa
04:54 14.4 °C 11.7 °C 84 % 0 km/h (3 km/h) 0 mm0 mm 60000 m 1021.9 hPa
04:48 14.5 °C 11.6 °C 83 % 0 km/h (2 km/h) 0 mm0 mm 60000 m 1021.9 hPa
04:42 14.6 °C 11.6 °C 82 % 0 km/h (2 km/h) 0 mm0 mm 60000 m 1021.8 hPa
04:36 14.9 °C 11.9 °C 82 % 2 km/h (4 km/h) 0 mm0 mm 60000 m 1021.8 hPa
04:30 15 °C 11.8 °C 81 % 2 km/h (4 km/h) 0 mm0 mm 60000 m 1021.8 hPa
04:24 15.1 °C 11.9 °C 81 % 0 km/h (2 km/h) 0 mm0 mm 60000 m 1021.8 hPa
04:18 15.3 °C 12.1 °C 81 % 0 km/h (2 km/h) 0 mm0 mm 60000 m 1021.8 hPa
04:12 15.4 °C 12 °C 80 % 0 km/h (2 km/h) 0 mm0 mm 60000 m 1021.8 hPa
04:06 15.5 °C 11.9 °C 79 % 0 km/h (4 km/h) 0 mm0 mm 60000 m 1021.7 hPa
04:00 15.6 °C 12 °C 79 % 3 km/h (7 km/h) 0 mm0 mm 60000 m 1021.6 hPa
03:54 15.6 °C 12 °C 79 % 4 km/h (7 km/h) 0 mm0 mm 60000 m 1021.6 hPa
03:48 15.8 °C 12.2 °C 79 % 2 km/h (4 km/h) 0 mm0 mm 60000 m 1021.6 hPa
03:42 15.7 °C 11.9 °C 78 % 2 km/h (4 km/h) 0 mm0 mm 60000 m 1021.6 hPa
03:36 15.7 °C 11.9 °C 78 % 3 km/h (4 km/h) 0 mm0 mm 60000 m 1021.6 hPa
03:30 15.8 °C 11.8 °C 77 % 2 km/h (4 km/h) 0 mm0 mm 60000 m 1021.6 hPa
03:24 15.9 °C 11.9 °C 77 % 4 km/h (7 km/h) 0 mm0 mm 60000 m 1021.6 hPa
03:18 16.1 °C 11.9 °C 76 % 6 km/h (9 km/h) 0 mm0 mm 60000 m 1021.6 hPa
03:12 16.3 °C 11.9 °C 75 % 8 km/h (9 km/h) 0 mm0 mm 60000 m 1021.5 hPa
03:06 16.5 °C 11.8 °C 74 % 7 km/h (8 km/h) 0 mm0 mm 60000 m 1021.6 hPa
03:00 16.5 °C 11.8 °C 74 % 6 km/h (8 km/h) 0 mm0 mm 60000 m 1021.6 hPa
02:54 16.6 °C 11.7 °C 73 % 4 km/h (6 km/h) 0 mm0 mm 60000 m 1021.5 hPa
02:48 16.6 °C 11.7 °C 73 % 3 km/h (6 km/h) 0 mm0 mm 60000 m 1021.6 hPa
02:42 16.6 °C 11.7 °C 73 % 4 km/h (7 km/h) 0 mm0 mm 60000 m 1021.5 hPa
02:36 16.8 °C 11.9 °C 73 % 5 km/h (8 km/h) 0 mm0 mm 60000 m 1021.5 hPa
02:30 16.9 °C 11.8 °C 72 % 6 km/h (8 km/h) 0 mm0 mm 60000 m 1021.5 hPa
02:24 17 °C 11.9 °C 72 % 5 km/h (8 km/h) 0 mm0 mm 60000 m 1021.5 hPa
02:18 16.9 °C 11.8 °C 72 % 5 km/h (8 km/h) 0 mm0 mm 60000 m 1021.5 hPa
02:12 16.8 °C 11.9 °C 73 % 4 km/h (6 km/h) 0 mm0 mm 60000 m 1021.5 hPa
02:06 16.8 °C 11.9 °C 73 % 4 km/h (5 km/h) 0 mm0 mm 60000 m 1021.5 hPa
02:00 16.9 °C 12 °C 73 % 3 km/h (5 km/h) 0 mm0 mm 60000 m 1021.3 hPa
01:54 17 °C 12.1 °C 73 % 3 km/h (6 km/h) 0 mm0 mm 60000 m 1021.2 hPa
01:48 17.1 °C 12 °C 72 % 5 km/h (8 km/h) 0 mm0 mm 60000 m 1021.2 hPa
01:42 17.2 °C 11.9 °C 71 % 6 km/h (9 km/h) 0 mm0 mm 60000 m 1021.3 hPa
01:36 17.8 °C 12 °C 69 % 8 km/h (12 km/h) 0 mm0 mm 60000 m 1021.2 hPa
01:30 18.1 °C 11.9 °C 67 % 8 km/h (12 km/h) 0 mm0 mm 60000 m 1021.3 hPa
01:24 17.9 °C 12.1 °C 69 % 9 km/h (12 km/h) 0 mm0 mm 60000 m 1021.3 hPa
01:18 17.8 °C 12 °C 69 % 10 km/h (12 km/h) 0 mm0 mm 60000 m 1021.3 hPa
01:12 17.4 °C 12.1 °C 71 % 11 km/h (13 km/h) 0 mm0 mm 60000 m 1021.4 hPa
01:06 17.4 °C 12.1 °C 71 % 10 km/h (13 km/h) 0 mm0 mm 60000 m 1021.3 hPa
01:00 17.4 °C 12.1 °C 71 % 10 km/h (12 km/h) 0 mm0 mm 60000 m 1021.3 hPa
00:54 17.3 °C 12.2 °C 72 % 10 km/h (12 km/h) 0 mm0 mm 60000 m 1021.3 hPa
00:48 17.3 °C 12.2 °C 72 % 9 km/h (11 km/h) 0 mm0 mm 60000 m 1021.4 hPa
00:42 17.4 °C 12.3 °C 72 % 9 km/h (10 km/h) 0 mm0 mm 60000 m 1021.4 hPa
00:36 17.5 °C 12.2 °C 71 % 9 km/h (10 km/h) 0 mm0 mm 60000 m 1021.4 hPa
00:30 17.6 °C 12.1 °C 70 % 9 km/h (11 km/h) 0 mm0 mm 60000 m 1021.4 hPa
00:24 17.8 °C 12 °C 69 % 9 km/h (11 km/h) 0 mm0 mm 60000 m 1021.3 hPa
00:18 18.2 °C 12.2 °C 68 % 7 km/h (11 km/h) 0 mm0 mm 60000 m 1021.3 hPa
00:12 18.5 °C 12 °C 66 % 8 km/h (11 km/h) 0 mm0 mm 60000 m 1021.2 hPa
00:06 18.7 °C 12.2 °C 66 % 7 km/h (10 km/h) 0 mm0 mm 60000 m 1021.2 hPa
00:00 18.5 °C 12.3 °C 67 % 8 km/h (10 km/h) 0 mm0 mm 60000 m 1021.3 hPa

Données via Météo-France

Relevés météo à Brive-Souillac

Cette page rassemble les observations de la station de Brive-Souillac : température, humidité, vent, précipitations et pression atmosphérique. Les graphiques facilitent le suivi de la journée, tandis que le tableau donne accès aux mesures horaires et infra-horaires disponibles.

Pour replacer ces mesures dans leur contexte, consultez la climatologie de Brive-Souillac ainsi que ses normales et records. Retrouvez aussi la carte des observations météo en temps réel.